Time;durP1;ratioP1;P1;durP2;ratioP2;P2;SDS_P1;SDS_P2;PMS_P1;PMS_P2;Temp;Humidity;BMP_temperature;BMP_pressure;BME280_temperature;BME280_humidity;BME280_pressure;Samples;Min_cycle;Max_cycle;Signal;HPM_P1;HPM_P2
2022/05/28 00:01:16;;;;;;;6.13;2.20;;;;;;;;;;5008332;28;20045;-77
2022/05/28 00:03:43;;;;;;;4.85;1.70;;;;;;;;;;5011336;28;20041;-76
2022/05/28 00:06:13;;;;;;;7.80;2.33;;;;;;;;;;5009123;28;20416;-77
2022/05/28 00:08:40;;;;;;;7.68;2.30;;;;;;;;;;5010774;28;20136;-77
2022/05/28 00:11:12;;;;;;;5.72;2.10;;;;;;;;;;5012651;28;20108;-76
2022/05/28 00:13:38;;;;;;;6.40;1.90;;;;;;;;;;5014838;28;20049;-77
2022/05/28 00:16:04;;;;;;;7.40;2.10;;;;;;;;;;5014821;28;20121;-77
2022/05/28 00:18:31;;;;;;;5.10;1.95;;;;;;;;;;5008968;28;20064;-77
2022/05/28 00:20:57;;;;;;;5.38;2.17;;;;;;;;;;5009122;28;20050;-77
2022/05/28 00:23:23;;;;;;;7.07;2.35;;;;;;;;;;5012455;28;20405;-77
2022/05/28 00:25:50;;;;;;;4.82;2.05;;;;;;;;;;5009217;28;21017;-77
2022/05/28 00:28:21;;;;;;;6.25;2.08;;;;;;;;;;5003694;28;20164;-77
2022/05/28 00:30:47;;;;;;;6.15;2.03;;;;;;;;;;5011298;28;20049;-77
2022/05/28 00:33:13;;;;;;;6.85;1.90;;;;;;;;;;5008476;28;20172;-76
2022/05/28 00:35:39;;;;;;;9.00;2.03;;;;;;;;;;5002024;28;20867;-77
2022/05/28 00:38:05;;;;;;;5.47;2.20;;;;;;;;;;5008429;28;20125;-77
2022/05/28 00:40:31;;;;;;;4.97;2.10;;;;;;;;;;5010638;28;20058;-77
2022/05/28 00:43:00;;;;;;;6.88;2.17;;;;;;;;;;5008772;28;20406;-76
2022/05/28 00:45:27;;;;;;;5.60;2.15;;;;;;;;;;5007184;28;20048;-77
2022/05/28 00:47:56;;;;;;;3.70;2.00;;;;;;;;;;5022059;28;20042;-77
2022/05/28 00:50:22;;;;;;;8.80;2.40;;;;;;;;;;5006444;28;20037;-76
2022/05/28 00:52:48;;;;;;;6.35;2.00;;;;;;;;;;5005470;28;20057;-76
2022/05/28 00:55:15;;;;;;;6.85;2.20;;;;;;;;;;5007642;28;20060;-76
2022/05/28 00:57:41;;;;;;;6.03;2.22;;;;;;;;;;5008137;28;20041;-76
2022/05/28 01:00:09;;;;;;;6.28;2.67;;;;;;;;;;5011590;28;20038;-76
2022/05/28 01:02:43;;;;;;;8.90;2.60;;;;;;;;;;5016394;28;20052;-77
2022/05/28 01:05:09;;;;;;;7.00;2.40;;;;;;;;;;5002142;28;20888;-77
2022/05/28 01:07:50;;;;;;;9.95;2.50;;;;;;;;;;5010168;28;20076;-77
2022/05/28 01:10:26;;;;;;;7.95;2.55;;;;;;;;;;5008133;28;20061;-77
2022/05/28 01:13:04;;;;;;;9.23;2.67;;;;;;;;;;4999803;28;20050;-77
2022/05/28 01:15:32;;;;;;;5.80;2.30;;;;;;;;;;5012484;28;20053;-77
2022/05/28 01:18:07;;;;;;;9.48;2.20;;;;;;;;;;5011022;28;20530;-77
2022/05/28 01:20:42;;;;;;;6.65;2.25;;;;;;;;;;5008643;28;20049;-76
2022/05/28 01:23:08;;;;;;;4.72;2.20;;;;;;;;;;5014149;28;20124;-77
2022/05/28 01:25:43;;;;;;;9.82;2.72;;;;;;;;;;5002107;28;20124;-77
2022/05/28 01:28:11;;;;;;;4.78;2.25;;;;;;;;;;5001706;28;20054;-76
2022/05/28 01:30:39;;;;;;;5.63;2.15;;;;;;;;;;5005158;28;20045;-77
2022/05/28 01:33:06;;;;;;;6.20;2.20;;;;;;;;;;5009491;28;20049;-76
2022/05/28 01:35:33;;;;;;;9.20;2.20;;;;;;;;;;5001236;28;20397;-76
2022/05/28 01:38:00;;;;;;;8.05;2.17;;;;;;;;;;5010516;28;20164;-77
2022/05/28 01:40:26;;;;;;;5.05;2.08;;;;;;;;;;5009544;28;20060;-77
2022/05/28 01:42:54;;;;;;;5.47;2.30;;;;;;;;;;5008357;28;20429;-76
2022/05/28 01:45:22;;;;;;;6.57;2.17;;;;;;;;;;5014895;28;20142;-76
2022/05/28 01:47:50;;;;;;;7.38;2.15;;;;;;;;;;5013597;28;20129;-76
2022/05/28 01:50:21;;;;;;;6.82;2.08;;;;;;;;;;5010518;28;20499;-76
2022/05/28 01:52:47;;;;;;;7.25;2.10;;;;;;;;;;5003577;28;20084;-76
2022/05/28 01:55:14;;;;;;;9.10;2.40;;;;;;;;;;5006274;28;20069;-76
2022/05/28 01:57:41;;;;;;;6.60;2.60;;;;;;;;;;5009266;28;20065;-77
2022/05/28 02:00:09;;;;;;;6.13;2.35;;;;;;;;;;5009846;28;20052;-76
2022/05/28 02:02:35;;;;;;;4.65;2.25;;;;;;;;;;5017766;28;20490;-76
2022/05/28 02:05:02;;;;;;;9.13;2.60;;;;;;;;;;5015462;28;20069;-76
2022/05/28 02:07:28;;;;;;;6.90;2.33;;;;;;;;;;5001337;28;20042;-76
2022/05/28 02:09:56;;;;;;;5.53;2.17;;;;;;;;;;5007653;28;20477;-76
2022/05/28 02:12:31;;;;;;;7.13;2.22;;;;;;;;;;5010663;28;20071;-76
2022/05/28 02:15:06;;;;;;;6.30;2.40;;;;;;;;;;5009201;28;20041;-76
2022/05/28 02:17:39;;;;;;;6.82;2.60;;;;;;;;;;5013281;28;20116;-76
2022/05/28 02:20:14;;;;;;;10.55;2.53;;;;;;;;;;5008476;28;20100;-76
2022/05/28 02:22:50;;;;;;;7.93;2.45;;;;;;;;;;5009145;28;20046;-76
2022/05/28 02:25:28;;;;;;;10.15;2.65;;;;;;;;;;5007222;28;20378;-76
2022/05/28 02:27:55;;;;;;;6.38;2.35;;;;;;;;;;5008261;28;20060;-76
2022/05/28 02:30:21;;;;;;;8.75;2.50;;;;;;;;;;5000610;28;20092;-76
2022/05/28 02:32:48;;;;;;;8.05;2.40;;;;;;;;;;5007386;28;20041;-76
2022/05/28 02:35:16;;;;;;;7.53;2.47;;;;;;;;;;5005744;28;20054;-77
2022/05/28 02:37:42;;;;;;;8.07;2.50;;;;;;;;;;5003972;28;20075;-76
2022/05/28 02:40:08;;;;;;;9.60;2.45;;;;;;;;;;5010996;28;20069;-76
2022/05/28 02:42:35;;;;;;;9.25;2.50;;;;;;;;;;5000801;28;20164;-76
2022/05/28 02:45:01;;;;;;;11.48;2.85;;;;;;;;;;5004135;28;20041;-76
2022/05/28 02:47:27;;;;;;;6.95;2.30;;;;;;;;;;5009263;28;20046;-76
2022/05/28 02:49:54;;;;;;;6.95;2.70;;;;;;;;;;5007672;28;20426;-76
2022/05/28 02:52:20;;;;;;;7.45;2.20;;;;;;;;;;5007200;28;20048;-76
2022/05/28 02:54:46;;;;;;;9.95;2.50;;;;;;;;;;5011756;28;20054;-76
2022/05/28 02:57:12;;;;;;;7.88;2.45;;;;;;;;;;5010587;28;20129;-76
2022/05/28 02:59:38;;;;;;;7.25;2.38;;;;;;;;;;5010129;28;20136;-76
2022/05/28 03:02:04;;;;;;;11.50;3.17;;;;;;;;;;5008235;28;20052;-76
2022/05/28 03:04:30;;;;;;;10.80;2.38;;;;;;;;;;4997320;28;20051;-76
2022/05/28 03:06:56;;;;;;;9.45;3.20;;;;;;;;;;5012518;28;20054;-76
2022/05/28 03:09:22;;;;;;;10.95;2.55;;;;;;;;;;5012012;28;20069;-77
2022/05/28 03:11:48;;;;;;;8.15;2.47;;;;;;;;;;5009078;28;20141;-77
2022/05/28 03:14:14;;;;;;;9.25;2.60;;;;;;;;;;5001750;28;20097;-76
2022/05/28 03:16:42;;;;;;;8.38;2.80;;;;;;;;;;5014584;28;20486;-77
2022/05/28 03:19:08;;;;;;;9.52;2.67;;;;;;;;;;5015136;28;20095;-77
2022/05/28 03:21:34;;;;;;;11.38;2.63;;;;;;;;;;5006161;28;20044;-77
2022/05/28 03:24:00;;;;;;;7.32;2.70;;;;;;;;;;5021972;28;20042;-76
2022/05/28 03:26:30;;;;;;;8.80;2.40;;;;;;;;;;5009373;28;20498;-76
2022/05/28 03:28:57;;;;;;;11.32;2.85;;;;;;;;;;5019113;28;20491;-77
2022/05/28 03:31:24;;;;;;;11.15;2.65;;;;;;;;;;5012958;28;20046;-77
2022/05/28 03:33:50;;;;;;;9.25;2.70;;;;;;;;;;5010919;28;20039;-77
2022/05/28 03:36:16;;;;;;;8.68;2.80;;;;;;;;;;5012547;28;20104;-77
2022/05/28 03:38:45;;;;;;;11.50;2.70;;;;;;;;;;5011144;28;20042;-76
2022/05/28 03:41:11;;;;;;;7.93;3.03;;;;;;;;;;5007684;28;20046;-77
2022/05/28 03:43:37;;;;;;;11.20;3.22;;;;;;;;;;5012196;28;22145;-77
2022/05/28 03:46:04;;;;;;;9.60;2.70;;;;;;;;;;5009012;28;20473;-77
2022/05/28 03:48:32;;;;;;;9.93;2.60;;;;;;;;;;5009110;28;20042;-76
2022/05/28 03:50:58;;;;;;;8.48;2.70;;;;;;;;;;5007147;28;20042;-76
2022/05/28 03:53:24;;;;;;;13.32;2.92;;;;;;;;;;5020077;28;20516;-76
2022/05/28 03:55:50;;;;;;;10.45;3.00;;;;;;;;;;5013481;28;20041;-76
2022/05/28 03:58:16;;;;;;;10.68;2.97;;;;;;;;;;5013457;28;20057;-76
2022/05/28 04:00:42;;;;;;;10.50;2.83;;;;;;;;;;5005729;28;20038;-76
2022/05/28 04:03:11;;;;;;;8.90;2.60;;;;;;;;;;5011257;28;20049;-75
2022/05/28 04:05:38;;;;;;;7.03;2.75;;;;;;;;;;5004757;28;20125;-76
2022/05/28 04:08:04;;;;;;;11.18;2.88;;;;;;;;;;5003521;28;20053;-77
2022/05/28 04:10:30;;;;;;;8.35;2.78;;;;;;;;;;5005668;28;20045;-77
2022/05/28 04:12:56;;;;;;;5.85;2.33;;;;;;;;;;5021852;28;20041;-77
2022/05/28 04:15:24;;;;;;;9.15;2.28;;;;;;;;;;5012562;28;20053;-77
2022/05/28 04:17:50;;;;;;;6.13;2.53;;;;;;;;;;5007298;28;20049;-76
2022/05/28 04:20:16;;;;;;;7.38;2.30;;;;;;;;;;5012020;28;20046;-76
2022/05/28 04:22:42;;;;;;;6.05;2.60;;;;;;;;;;5009001;28;20512;-76
2022/05/28 04:25:09;;;;;;;8.18;2.50;;;;;;;;;;5009299;28;20037;-77
2022/05/28 04:27:35;;;;;;;9.68;3.05;;;;;;;;;;5001887;28;20513;-77
2022/05/28 04:30:02;;;;;;;11.00;3.25;;;;;;;;;;5003385;28;20042;-76
2022/05/28 04:32:28;;;;;;;8.52;2.63;;;;;;;;;;5011176;28;20054;-76
2022/05/28 04:34:54;;;;;;;10.25;3.22;;;;;;;;;;5012315;28;20050;-76
2022/05/28 04:37:20;;;;;;;8.43;2.60;;;;;;;;;;5018826;28;20433;-76
2022/05/28 04:39:46;;;;;;;10.88;2.97;;;;;;;;;;5010947;28;20088;-76
2022/05/28 04:42:12;;;;;;;9.43;3.33;;;;;;;;;;5009436;28;20046;-76
2022/05/28 04:44:38;;;;;;;10.85;2.80;;;;;;;;;;5000949;28;20048;-76
2022/05/28 04:47:04;;;;;;;7.57;2.90;;;;;;;;;;5009357;28;20046;-76
2022/05/28 04:49:30;;;;;;;11.30;3.35;;;;;;;;;;5008499;28;20084;-76
2022/05/28 04:51:56;;;;;;;8.85;2.70;;;;;;;;;;5016347;28;20504;-77
2022/05/28 04:54:25;;;;;;;8.30;2.75;;;;;;;;;;5009359;28;20092;-76
2022/05/28 04:56:51;;;;;;;9.02;2.70;;;;;;;;;;5016883;28;20144;-76
2022/05/28 04:59:18;;;;;;;4.80;2.50;;;;;;;;;;5009477;28;20397;-77
2022/05/28 05:01:44;;;;;;;11.07;3.15;;;;;;;;;;5015123;28;20041;-76
2022/05/28 05:04:10;;;;;;;11.13;3.15;;;;;;;;;;5012237;28;20096;-77
2022/05/28 05:06:36;;;;;;;8.60;2.90;;;;;;;;;;5009229;28;20046;-77
2022/05/28 05:09:02;;;;;;;6.70;2.55;;;;;;;;;;5007938;28;20041;-76
2022/05/28 05:11:32;;;;;;;12.35;3.22;;;;;;;;;;5001899;28;20046;-76
2022/05/28 05:13:58;;;;;;;10.98;2.97;;;;;;;;;;5016395;28;20048;-76
2022/05/28 05:16:24;;;;;;;10.40;3.05;;;;;;;;;;5007823;28;20045;-76
2022/05/28 05:18:50;;;;;;;8.93;3.03;;;;;;;;;;5008772;28;20046;-76
2022/05/28 05:21:16;;;;;;;9.63;2.72;;;;;;;;;;5010133;28;20125;-77
2022/05/28 05:23:43;;;;;;;6.65;2.45;;;;;;;;;;5017343;28;20449;-77
2022/05/28 05:26:13;;;;;;;8.15;2.88;;;;;;;;;;5021194;28;20056;-76
2022/05/28 05:28:39;;;;;;;7.57;2.63;;;;;;;;;;5009502;28;20107;-76
2022/05/28 05:31:05;;;;;;;10.18;2.78;;;;;;;;;;5010875;28;20084;-76
2022/05/28 05:33:31;;;;;;;6.60;2.60;;;;;;;;;;5011332;28;20042;-76
2022/05/28 05:35:57;;;;;;;10.70;2.80;;;;;;;;;;5009819;28;20050;-76
2022/05/28 05:38:23;;;;;;;10.00;2.80;;;;;;;;;;5008791;28;20461;-76
2022/05/28 05:40:50;;;;;;;7.90;2.83;;;;;;;;;;5007442;28;20046;-76
2022/05/28 05:43:16;;;;;;;9.20;2.97;;;;;;;;;;5008470;28;20045;-76
2022/05/28 05:45:42;;;;;;;11.23;3.20;;;;;;;;;;5024977;28;20041;-76
2022/05/28 05:48:08;;;;;;;9.80;2.95;;;;;;;;;;5010335;28;20042;-76
2022/05/28 05:50:34;;;;;;;11.38;3.15;;;;;;;;;;5011666;28;20041;-76
2022/05/28 05:53:03;;;;;;;8.20;3.00;;;;;;;;;;5017435;28;20048;-76
2022/05/28 05:55:29;;;;;;;8.07;2.90;;;;;;;;;;5010019;28;20052;-76
2022/05/28 05:57:55;;;;;;;8.85;2.90;;;;;;;;;;4996558;28;20403;-76
2022/05/28 06:00:22;;;;;;;6.63;2.80;;;;;;;;;;5006367;28;20050;-76
2022/05/28 06:02:47;;;;;;;7.20;2.75;;;;;;;;;;5012395;28;20044;-76
2022/05/28 06:05:13;;;;;;;7.75;3.10;;;;;;;;;;5007675;28;20137;-76
2022/05/28 06:07:39;;;;;;;10.45;3.00;;;;;;;;;;5014153;28;20061;-77
2022/05/28 06:10:07;;;;;;;10.07;2.92;;;;;;;;;;5004640;28;20253;-76
2022/05/28 06:12:33;;;;;;;8.00;2.72;;;;;;;;;;5003952;28;20050;-76
2022/05/28 06:14:59;;;;;;;8.32;3.00;;;;;;;;;;5004206;28;20099;-76
2022/05/28 06:17:27;;;;;;;10.30;3.58;;;;;;;;;;5017305;28;20120;-76
2022/05/28 06:19:54;;;;;;;9.75;2.92;;;;;;;;;;5010135;28;20474;-76
2022/05/28 06:22:22;;;;;;;12.95;3.63;;;;;;;;;;5013045;28;20051;-76
2022/05/28 06:24:48;;;;;;;11.43;3.08;;;;;;;;;;5014465;28;20056;-76
2022/05/28 06:27:14;;;;;;;9.90;3.67;;;;;;;;;;5013773;28;20108;-77
2022/05/28 06:29:41;;;;;;;10.90;2.95;;;;;;;;;;5008441;28;20824;-76
2022/05/28 06:32:07;;;;;;;10.10;2.63;;;;;;;;;;5028645;28;20072;-76
2022/05/28 06:34:36;;;;;;;9.63;2.97;;;;;;;;;;5012071;28;20049;-76
2022/05/28 06:37:01;;;;;;;9.98;2.88;;;;;;;;;;5000785;28;20065;-76
2022/05/28 06:39:27;;;;;;;13.25;3.25;;;;;;;;;;5012046;28;20524;-75
2022/05/28 06:41:53;;;;;;;8.63;2.95;;;;;;;;;;5006752;28;20132;-76
2022/05/28 06:44:20;;;;;;;11.77;3.47;;;;;;;;;;5015823;28;20105;-76
2022/05/28 06:46:46;;;;;;;10.48;3.13;;;;;;;;;;5019797;28;20077;-76
2022/05/28 06:49:12;;;;;;;6.95;2.80;;;;;;;;;;5003249;28;20065;-76
2022/05/28 06:51:39;;;;;;;10.15;3.10;;;;;;;;;;5005523;28;20085;-77
2022/05/28 06:54:06;;;;;;;10.07;3.22;;;;;;;;;;5010507;28;20663;-76
2022/05/28 06:56:32;;;;;;;12.57;4.13;;;;;;;;;;5012013;28;20132;-76
2022/05/28 06:58:58;;;;;;;9.50;2.80;;;;;;;;;;5008304;28;20121;-76
2022/05/28 07:01:24;;;;;;;6.47;2.78;;;;;;;;;;5001557;28;20133;-76
2022/05/28 07:03:50;;;;;;;9.02;3.00;;;;;;;;;;5008620;28;20069;-76
2022/05/28 07:06:16;;;;;;;7.63;3.15;;;;;;;;;;5009419;28;20491;-76
2022/05/28 07:08:42;;;;;;;7.25;2.88;;;;;;;;;;5005236;28;20474;-76
2022/05/28 07:11:09;;;;;;;8.75;2.63;;;;;;;;;;5007121;28;20103;-76
2022/05/28 07:13:35;;;;;;;11.20;3.00;;;;;;;;;;5004519;28;20046;-75
2022/05/28 07:16:05;;;;;;;7.78;3.33;;;;;;;;;;5009620;28;20049;-75
2022/05/28 07:18:32;;;;;;;10.10;3.08;;;;;;;;;;5005720;28;20058;-76
2022/05/28 07:21:00;;;;;;;8.95;3.22;;;;;;;;;;5005571;28;20046;-75
2022/05/28 07:23:28;;;;;;;8.68;2.72;;;;;;;;;;5010667;28;20045;-76
2022/05/28 07:26:07;;;;;;;8.05;2.90;;;;;;;;;;5000249;28;20371;-76
2022/05/28 07:28:37;;;;;;;9.20;2.92;;;;;;;;;;5002373;28;20049;-76
2022/05/28 07:31:07;;;;;;;7.13;2.60;;;;;;;;;;5010933;28;20397;-76
2022/05/28 07:33:35;;;;;;;9.85;2.80;;;;;;;;;;4995759;28;20569;-77
2022/05/28 07:36:01;;;;;;;9.65;2.70;;;;;;;;;;5009496;28;20140;-76
2022/05/28 07:38:30;;;;;;;8.68;3.05;;;;;;;;;;5007693;28;20080;-76
2022/05/28 07:40:56;;;;;;;10.93;3.15;;;;;;;;;;5008295;28;20790;-77
2022/05/28 07:43:22;;;;;;;14.50;3.70;;;;;;;;;;5005158;28;20052;-76
2022/05/28 07:45:48;;;;;;;10.05;3.08;;;;;;;;;;5009644;28;20041;-76
2022/05/28 07:48:15;;;;;;;11.82;3.10;;;;;;;;;;5005624;28;20052;-76
2022/05/28 07:50:41;;;;;;;9.65;2.92;;;;;;;;;;5015728;28;20041;-76
2022/05/28 07:53:08;;;;;;;8.98;2.97;;;;;;;;;;5006052;28;20575;-76
2022/05/28 07:55:35;;;;;;;8.02;3.55;;;;;;;;;;5011258;28;20037;-76
2022/05/28 07:58:08;;;;;;;12.55;3.47;;;;;;;;;;5009415;28;20128;-76
2022/05/28 08:00:37;;;;;;;8.70;3.28;;;;;;;;;;5002133;28;20541;-76
2022/05/28 08:03:03;;;;;;;10.05;2.67;;;;;;;;;;5003706;28;20034;-76
2022/05/28 08:05:29;;;;;;;8.65;2.95;;;;;;;;;;5039895;28;20553;-76
2022/05/28 08:07:55;;;;;;;10.05;3.03;;;;;;;;;;5013806;28;20070;-76
2022/05/28 08:10:21;;;;;;;13.82;3.65;;;;;;;;;;5012089;28;20080;-76
2022/05/28 08:12:47;;;;;;;12.23;3.05;;;;;;;;;;5013940;28;20045;-76
2022/05/28 08:15:13;;;;;;;7.07;3.10;;;;;;;;;;5012495;28;20054;-76
2022/05/28 08:17:39;;;;;;;8.40;2.95;;;;;;;;;;5015375;28;20509;-76
2022/05/28 08:20:05;;;;;;;14.23;3.05;;;;;;;;;;5016731;28;20037;-76
2022/05/28 08:25:16;;;;;;;8.50;3.55;;;;;;;;;;5008057;28;20050;-76
2022/05/28 08:27:42;;;;;;;8.75;3.03;;;;;;;;;;5017974;28;20061;-76
2022/05/28 08:30:08;;;;;;;10.35;2.92;;;;;;;;;;5019072;28;20058;-76
2022/05/28 08:32:34;;;;;;;8.65;2.95;;;;;;;;;;5015167;28;20048;-76
2022/05/28 08:35:00;;;;;;;13.32;3.45;;;;;;;;;;5021923;28;20103;-76
2022/05/28 08:37:26;;;;;;;10.27;3.20;;;;;;;;;;5015983;28;20050;-76
2022/05/28 08:39:52;;;;;;;12.85;3.55;;;;;;;;;;5003581;28;20030;-76
2022/05/28 08:42:20;;;;;;;11.25;3.30;;;;;;;;;;5005643;28;20893;-76
2022/05/28 08:44:47;;;;;;;11.05;3.33;;;;;;;;;;5043005;28;20121;-76
2022/05/28 08:47:15;;;;;;;11.00;2.90;;;;;;;;;;5037545;28;20454;-76
2022/05/28 08:49:41;;;;;;;10.75;3.53;;;;;;;;;;5001632;28;20050;-75
2022/05/28 08:52:13;;;;;;;12.73;2.97;;;;;;;;;;4998683;28;20089;-76
2022/05/28 08:54:56;;;;;;;7.65;2.90;;;;;;;;;;5005957;28;20132;-75
2022/05/28 08:57:26;;;;;;;10.73;3.45;;;;;;;;;;5010532;28;20449;-75
2022/05/28 09:00:00;;;;;;;10.18;3.38;;;;;;;;;;5008777;28;20116;-76
2022/05/28 09:02:33;;;;;;;7.90;3.08;;;;;;;;;;5016565;28;20132;-75
2022/05/28 09:05:01;;;;;;;13.43;3.77;;;;;;;;;;5007483;28;20042;-75
2022/05/28 09:07:27;;;;;;;9.25;2.92;;;;;;;;;;5011126;28;20383;-76
2022/05/28 09:09:54;;;;;;;9.68;3.00;;;;;;;;;;5008145;28;20137;-76
2022/05/28 09:12:31;;;;;;;9.80;3.20;;;;;;;;;;5003668;28;20372;-77
2022/05/28 09:15:00;;;;;;;10.77;2.75;;;;;;;;;;5008196;28;20124;-76
2022/05/28 09:17:37;;;;;;;9.68;2.92;;;;;;;;;;5008156;28;20046;-76
2022/05/28 09:20:08;;;;;;;11.27;3.05;;;;;;;;;;5008677;28;20052;-76
2022/05/28 09:22:37;;;;;;;11.55;3.05;;;;;;;;;;5010668;28;20092;-76
2022/05/28 09:25:04;;;;;;;7.55;2.92;;;;;;;;;;5008496;28;20513;-76
2022/05/28 09:27:38;;;;;;;8.68;3.15;;;;;;;;;;5007828;28;20524;-75
2022/05/28 09:30:04;;;;;;;11.13;3.60;;;;;;;;;;5010457;28;20048;-76
2022/05/28 09:32:50;;;;;;;8.90;2.95;;;;;;;;;;5005171;28;20050;-85
2022/05/28 09:35:19;;;;;;;7.47;3.03;;;;;;;;;;5005651;28;20060;-75
2022/05/28 09:38:08;;;;;;;10.68;3.05;;;;;;;;;;5005814;28;20489;-75
2022/05/28 09:40:49;;;;;;;11.43;3.35;;;;;;;;;;5007979;28;20042;-75
2022/05/28 09:43:15;;;;;;;7.22;3.35;;;;;;;;;;5006746;28;20042;-75
2022/05/28 09:46:10;;;;;;;8.50;2.92;;;;;;;;;;5008220;28;20044;-75
2022/05/28 09:48:36;;;;;;;10.65;3.00;;;;;;;;;;5007089;28;20096;-75
2022/05/28 09:51:02;;;;;;;10.90;3.50;;;;;;;;;;5009419;28;20037;-75
2022/05/28 09:56:36;;;;;;;7.35;2.63;;;;;;;;;;5003569;28;20461;-75
2022/05/28 09:59:04;;;;;;;12.38;3.30;;;;;;;;;;5036522;28;20096;-74
2022/05/28 10:01:33;;;;;;;8.82;2.72;;;;;;;;;;5005529;28;20038;-75
2022/05/28 10:06:46;;;;;;;10.70;3.40;;;;;;;;;;5009055;28;20049;-75
2022/05/28 10:09:18;;;;;;;11.68;2.85;;;;;;;;;;5008034;28;20129;-75
2022/05/28 10:11:52;;;;;;;7.32;2.90;;;;;;;;;;5005949;28;20038;-74
2022/05/28 10:14:18;;;;;;;10.30;3.10;;;;;;;;;;5006584;28;20064;-75
2022/05/28 10:16:51;;;;;;;8.00;3.00;;;;;;;;;;5004834;28;20478;-75
2022/05/28 10:19:26;;;;;;;8.50;2.83;;;;;;;;;;5040125;28;20092;-75
2022/05/28 10:21:54;;;;;;;11.45;3.20;;;;;;;;;;5007667;28;20046;-75
2022/05/28 10:24:22;;;;;;;16.70;3.28;;;;;;;;;;5013123;28;20033;-75
2022/05/28 10:26:58;;;;;;;7.55;2.83;;;;;;;;;;5012566;28;20057;-76
2022/05/28 10:29:31;;;;;;;8.32;2.70;;;;;;;;;;5001063;28;20057;-75
2022/05/28 10:32:02;;;;;;;8.10;2.92;;;;;;;;;;5007528;28;20075;-75
2022/05/28 10:34:28;;;;;;;9.23;2.80;;;;;;;;;;5010344;28;20046;-75
2022/05/28 10:37:05;;;;;;;9.52;2.75;;;;;;;;;;5029852;28;20174;-75
2022/05/28 10:39:31;;;;;;;9.65;2.75;;;;;;;;;;5011401;28;20049;-75
2022/05/28 10:41:57;;;;;;;7.95;2.70;;;;;;;;;;5041379;28;20060;-75
2022/05/28 10:44:24;;;;;;;8.70;2.60;;;;;;;;;;5011323;28;20046;-75
2022/05/28 10:47:08;;;;;;;8.30;3.42;;;;;;;;;;5020097;28;20052;-75
2022/05/28 10:49:51;;;;;;;7.57;2.45;;;;;;;;;;4998674;28;20115;-76
2022/05/28 10:52:36;;;;;;;6.70;2.70;;;;;;;;;;5004768;28;20056;-76
2022/05/28 10:55:24;;;;;;;9.25;2.78;;;;;;;;;;5037245;28;20057;-75
2022/05/28 10:57:50;;;;;;;8.10;2.85;;;;;;;;;;5002549;28;20050;-76
2022/05/28 11:00:25;;;;;;;11.45;2.70;;;;;;;;;;5010178;28;20053;-75
2022/05/28 11:02:52;;;;;;;9.27;2.72;;;;;;;;;;5007281;28;20132;-76
2022/05/28 11:05:23;;;;;;;8.88;2.80;;;;;;;;;;5006379;28;20096;-75
2022/05/28 11:07:52;;;;;;;6.28;2.55;;;;;;;;;;5009430;28;20080;-76
2022/05/28 11:10:18;;;;;;;9.32;3.13;;;;;;;;;;5037043;28;20050;-76
2022/05/28 11:13:03;;;;;;;5.78;2.50;;;;;;;;;;5012515;28;20050;-76
2022/05/28 11:15:29;;;;;;;7.15;2.33;;;;;;;;;;5004296;28;20046;-75
2022/05/28 11:17:55;;;;;;;8.18;2.40;;;;;;;;;;5008632;28;20046;-76
2022/05/28 11:20:21;;;;;;;9.55;3.03;;;;;;;;;;5007935;28;20038;-75
2022/05/28 11:23:02;;;;;;;10.07;2.90;;;;;;;;;;5008951;28;20101;-76
2022/05/28 11:25:49;;;;;;;6.68;2.47;;;;;;;;;;5006540;28;20060;-76
2022/05/28 11:28:33;;;;;;;7.43;2.55;;;;;;;;;;5007828;28;20089;-76
2022/05/28 11:31:10;;;;;;;5.78;2.45;;;;;;;;;;5012813;28;20054;-76
2022/05/28 11:33:38;;;;;;;6.10;2.55;;;;;;;;;;5009725;28;20084;-77
2022/05/28 11:36:06;;;;;;;12.43;3.17;;;;;;;;;;5008395;28;20037;-77
2022/05/28 11:38:54;;;;;;;10.25;2.70;;;;;;;;;;5012367;28;20030;-75
2022/05/28 11:41:35;;;;;;;9.85;3.20;;;;;;;;;;5012562;28;20060;-76
2022/05/28 11:44:20;;;;;;;10.00;3.38;;;;;;;;;;5009482;28;20128;-76
2022/05/28 11:46:52;;;;;;;8.00;2.47;;;;;;;;;;5009661;28;20050;-75
2022/05/28 11:52:17;;;;;;;5.80;2.67;;;;;;;;;;4981949;28;20908;-76
2022/05/28 11:54:52;;;;;;;8.02;2.42;;;;;;;;;;5011378;28;20049;-76
2022/05/28 11:57:33;;;;;;;6.43;2.47;;;;;;;;;;5009532;28;20045;-76
2022/05/28 12:00:00;;;;;;;7.50;2.50;;;;;;;;;;5008121;28;20556;-75
2022/05/28 12:02:30;;;;;;;6.43;2.40;;;;;;;;;;5040618;28;20081;-76
2022/05/28 12:04:56;;;;;;;7.40;2.25;;;;;;;;;;5007129;28;20516;-76
2022/05/28 12:07:39;;;;;;;6.00;2.42;;;;;;;;;;5010811;28;20053;-75
2022/05/28 12:10:08;;;;;;;3.95;2.17;;;;;;;;;;5009488;28;20065;-75
2022/05/28 12:12:39;;;;;;;6.60;2.17;;;;;;;;;;5011111;28;20077;-76
2022/05/28 12:15:05;;;;;;;8.80;2.53;;;;;;;;;;5008384;28;20450;-75
2022/05/28 12:17:31;;;;;;;9.43;2.53;;;;;;;;;;5009411;28;20112;-76
2022/05/28 12:20:07;;;;;;;5.68;2.42;;;;;;;;;;5006415;28;20050;-75
2022/05/28 12:22:33;;;;;;;6.72;2.28;;;;;;;;;;5007214;28;20038;-76
2022/05/28 12:25:06;;;;;;;6.97;2.38;;;;;;;;;;5010359;28;20060;-76
2022/05/28 12:27:32;;;;;;;;;;;;;;;;;;5009519;28;20410;-76
2022/05/28 12:30:01;;;;;;;5.55;2.30;;;;;;;;;;5016953;28;19928;-76
2022/05/28 12:32:42;;;;;;;6.70;2.35;;;;;;;;;;5010697;28;20034;-76
2022/05/28 12:35:22;;;;;;;6.95;2.30;;;;;;;;;;5005744;28;20085;-76
2022/05/28 12:37:57;;;;;;;7.55;2.30;;;;;;;;;;5011300;28;20049;-75
2022/05/28 12:40:49;;;;;;;7.15;2.20;;;;;;;;;;5038824;28;20117;-76
2022/05/28 12:43:25;;;;;;;7.93;2.40;;;;;;;;;;5005092;28;20058;-75
2022/05/28 12:45:52;;;;;;;7.97;2.35;;;;;;;;;;5015213;28;20504;-74
2022/05/28 12:48:21;;;;;;;10.73;2.45;;;;;;;;;;5029783;28;20850;-75
2022/05/28 12:51:05;;;;;;;9.10;2.70;;;;;;;;;;5008581;28;20054;-75
2022/05/28 12:53:35;;;;;;;7.35;2.42;;;;;;;;;;5033070;28;20504;-75
2022/05/28 12:56:21;;;;;;;7.72;2.80;;;;;;;;;;5022300;28;20041;-75
2022/05/28 12:58:52;;;;;;;6.13;2.33;;;;;;;;;;5002282;28;20054;-75
2022/05/28 13:01:21;;;;;;;5.30;2.00;;;;;;;;;;5016362;28;20092;-75
2022/05/28 13:03:48;;;;;;;6.28;2.75;;;;;;;;;;5012144;28;20128;-75
2022/05/28 13:06:20;;;;;;;5.00;2.10;;;;;;;;;;5012524;28;20045;-74
2022/05/28 13:08:50;;;;;;;4.30;2.17;;;;;;;;;;5013473;28;20045;-74
2022/05/28 13:11:36;;;;;;;6.93;2.38;;;;;;;;;;5010814;28;20050;-74
2022/05/28 13:14:11;;;;;;;5.47;2.33;;;;;;;;;;5027302;28;20079;-74
2022/05/28 13:16:56;;;;;;;4.50;2.03;;;;;;;;;;5005425;28;20046;-74
2022/05/28 13:19:44;;;;;;;4.53;1.92;;;;;;;;;;5037636;28;20902;-75
2022/05/28 13:22:24;;;;;;;6.72;2.45;;;;;;;;;;5008273;28;20075;-75
2022/05/28 13:24:55;;;;;;;5.57;2.05;;;;;;;;;;5010048;28;20046;-75
2022/05/28 13:27:28;;;;;;;7.07;2.20;;;;;;;;;;5009965;28;20750;-76
2022/05/28 13:29:57;;;;;;;6.35;2.28;;;;;;;;;;5004785;28;20054;-75
2022/05/28 13:32:27;;;;;;;4.68;2.10;;;;;;;;;;5005815;28;20050;-74
2022/05/28 13:35:00;;;;;;;8.30;2.40;;;;;;;;;;5015495;28;20043;-75
2022/05/28 13:37:26;;;;;;;9.88;2.50;;;;;;;;;;5007294;28;20065;-74
2022/05/28 13:39:55;;;;;;;8.25;2.50;;;;;;;;;;5039484;28;20115;-75
2022/05/28 13:42:21;;;;;;;6.95;2.35;;;;;;;;;;5007309;28;20095;-75
2022/05/28 13:44:47;;;;;;;5.70;2.25;;;;;;;;;;5010922;28;20049;-75
2022/05/28 13:47:15;;;;;;;7.60;2.20;;;;;;;;;;5008065;28;20489;-75
2022/05/28 13:49:46;;;;;;;6.30;2.10;;;;;;;;;;5015960;28;20045;-74
2022/05/28 13:52:15;;;;;;;5.97;2.30;;;;;;;;;;5010938;28;20568;-75
2022/05/28 13:54:54;;;;;;;5.47;2.10;;;;;;;;;;5018038;28;20046;-75
2022/05/28 13:57:21;;;;;;;6.95;1.90;;;;;;;;;;5020362;28;20076;-74
2022/05/28 13:59:55;;;;;;;5.53;2.25;;;;;;;;;;5012273;28;20081;-74
2022/05/28 14:02:23;;;;;;;8.48;2.38;;;;;;;;;;5011424;28;20052;-74
2022/05/28 14:04:49;;;;;;;5.30;2.38;;;;;;;;;;5001850;28;20042;-75
2022/05/28 14:07:26;;;;;;;4.00;2.10;;;;;;;;;;5006995;28;20509;-76
2022/05/28 14:09:53;;;;;;;7.00;2.25;;;;;;;;;;5014923;28;20049;-75
2022/05/28 14:12:30;;;;;;;7.22;2.45;;;;;;;;;;5030630;28;20046;-75
2022/05/28 14:14:56;;;;;;;8.32;2.22;;;;;;;;;;5015714;28;20041;-74
2022/05/28 14:17:28;;;;;;;6.97;2.38;;;;;;;;;;5007438;28;20089;-76
2022/05/28 14:19:57;;;;;;;8.18;2.70;;;;;;;;;;5003635;28;20094;-74
2022/05/28 14:22:30;;;;;;;4.10;2.00;;;;;;;;;;5003604;28;20052;-74
2022/05/28 14:24:56;;;;;;;6.60;2.33;;;;;;;;;;5007150;28;20088;-75
2022/05/28 14:27:24;;;;;;;4.32;2.25;;;;;;;;;;5038524;28;20118;-75
2022/05/28 14:29:51;;;;;;;4.20;2.20;;;;;;;;;;5040020;28;20107;-75
2022/05/28 14:32:19;;;;;;;6.50;2.30;;;;;;;;;;5007190;28;20057;-76
2022/05/28 14:34:49;;;;;;;2.90;2.03;;;;;;;;;;5006262;28;20041;-75
2022/05/28 14:37:28;;;;;;;5.13;2.17;;;;;;;;;;5005921;28;20073;-75
2022/05/28 14:39:55;;;;;;;5.75;2.10;;;;;;;;;;5010624;28;20164;-76
2022/05/28 14:42:24;;;;;;;5.70;2.00;;;;;;;;;;5006485;28;20142;-76
2022/05/28 14:44:50;;;;;;;6.38;2.38;;;;;;;;;;5006806;28;20049;-75
2022/05/28 14:47:30;;;;;;;3.50;1.90;;;;;;;;;;5005591;28;20431;-75
2022/05/28 14:49:57;;;;;;;6.45;2.10;;;;;;;;;;5005908;28;20514;-75
2022/05/28 14:52:24;;;;;;;5.80;1.92;;;;;;;;;;5007070;28;20837;-75
2022/05/28 14:54:55;;;;;;;3.75;1.98;;;;;;;;;;5034665;28;20048;-75
2022/05/28 14:57:35;;;;;;;3.55;2.08;;;;;;;;;;5019456;28;20041;-75
2022/05/28 15:00:05;;;;;;;4.25;2.10;;;;;;;;;;5029715;28;20052;-75
2022/05/28 15:02:36;;;;;;;5.32;2.30;;;;;;;;;;5021515;28;20498;-76
2022/05/28 15:05:29;;;;;;;5.18;2.05;;;;;;;;;;5021168;28;20050;-75